sensor_id;sensor_type;location;lat;lon;timestamp;P1;durP1;ratioP1;P2;durP2;ratioP2
13743;SDS011;6943;52.368;9.966;2022-09-09T00:00:38;5.73;;;1.80;;
13743;SDS011;6943;52.368;9.966;2022-09-09T00:03:22;3.10;;;1.30;;
13743;SDS011;6943;52.368;9.966;2022-09-09T00:06:10;2.53;;;1.33;;
13743;SDS011;6943;52.368;9.966;2022-09-09T00:09:13;1.73;;;1.20;;
13743;SDS011;6943;52.368;9.966;2022-09-09T00:17:43;4.63;;;1.67;;
13743;SDS011;6943;52.368;9.966;2022-09-09T00:20:19;1.67;;;1.30;;
13743;SDS011;6943;52.368;9.966;2022-09-09T00:23:12;4.27;;;1.40;;
13743;SDS011;6943;52.368;9.966;2022-09-09T00:28:19;2.30;;;1.30;;
13743;SDS011;6943;52.368;9.966;2022-09-09T00:30:47;1.83;;;1.23;;
13743;SDS011;6943;52.368;9.966;2022-09-09T00:33:13;2.13;;;1.40;;
13743;SDS011;6943;52.368;9.966;2022-09-09T00:35:44;2.83;;;1.37;;
13743;SDS011;6943;52.368;9.966;2022-09-09T00:38:13;1.83;;;1.67;;
13743;SDS011;6943;52.368;9.966;2022-09-09T00:43:29;4.20;;;1.67;;
13743;SDS011;6943;52.368;9.966;2022-09-09T00:54:18;2.47;;;1.80;;
13743;SDS011;6943;52.368;9.966;2022-09-09T00:57:01;2.13;;;1.30;;
13743;SDS011;6943;52.368;9.966;2022-09-09T01:02:21;2.63;;;1.70;;
13743;SDS011;6943;52.368;9.966;2022-09-09T01:05:02;2.13;;;1.40;;
13743;SDS011;6943;52.368;9.966;2022-09-09T01:07:35;1.90;;;1.47;;
13743;SDS011;6943;52.368;9.966;2022-09-09T01:10:03;1.97;;;1.40;;
13743;SDS011;6943;52.368;9.966;2022-09-09T01:12:38;3.23;;;1.63;;
13743;SDS011;6943;52.368;9.966;2022-09-09T01:17:58;3.07;;;1.33;;
13743;SDS011;6943;52.368;9.966;2022-09-09T01:28:34;3.03;;;1.60;;
13743;SDS011;6943;52.368;9.966;2022-09-09T01:31:02;3.10;;;1.50;;
13743;SDS011;6943;52.368;9.966;2022-09-09T01:33:30;2.67;;;1.70;;
13743;SDS011;6943;52.368;9.966;2022-09-09T01:35:57;1.87;;;1.40;;
13743;SDS011;6943;52.368;9.966;2022-09-09T01:38:25;3.53;;;1.40;;
13743;SDS011;6943;52.368;9.966;2022-09-09T01:40:52;2.90;;;1.73;;
13743;SDS011;6943;52.368;9.966;2022-09-09T01:43:22;3.67;;;1.40;;
13743;SDS011;6943;52.368;9.966;2022-09-09T01:45:50;3.50;;;1.57;;
13743;SDS011;6943;52.368;9.966;2022-09-09T01:48:19;6.13;;;1.43;;
13743;SDS011;6943;52.368;9.966;2022-09-09T01:50:47;3.13;;;1.60;;
13743;SDS011;6943;52.368;9.966;2022-09-09T01:53:13;3.03;;;1.73;;
13743;SDS011;6943;52.368;9.966;2022-09-09T01:55:42;1.60;;;1.40;;
13743;SDS011;6943;52.368;9.966;2022-09-09T01:58:20;4.40;;;1.50;;
13743;SDS011;6943;52.368;9.966;2022-09-09T02:01:10;2.80;;;1.63;;
13743;SDS011;6943;52.368;9.966;2022-09-09T02:03:37;3.43;;;1.53;;
13743;SDS011;6943;52.368;9.966;2022-09-09T02:06:10;2.43;;;1.30;;
13743;SDS011;6943;52.368;9.966;2022-09-09T02:09:06;4.10;;;1.47;;
13743;SDS011;6943;52.368;9.966;2022-09-09T02:11:36;3.00;;;1.33;;
13743;SDS011;6943;52.368;9.966;2022-09-09T02:14:03;3.40;;;1.40;;
13743;SDS011;6943;52.368;9.966;2022-09-09T02:16:34;2.30;;;1.43;;
13743;SDS011;6943;52.368;9.966;2022-09-09T02:19:13;3.10;;;1.40;;
13743;SDS011;6943;52.368;9.966;2022-09-09T02:21:51;6.13;;;1.70;;
13743;SDS011;6943;52.368;9.966;2022-09-09T02:24:19;3.57;;;1.73;;
13743;SDS011;6943;52.368;9.966;2022-09-09T02:26:45;2.80;;;1.40;;
13743;SDS011;6943;52.368;9.966;2022-09-09T02:29:14;3.93;;;1.90;;
13743;SDS011;6943;52.368;9.966;2022-09-09T02:31:57;4.17;;;1.50;;
13743;SDS011;6943;52.368;9.966;2022-09-09T02:34:28;4.40;;;1.50;;
13743;SDS011;6943;52.368;9.966;2022-09-09T02:36:56;2.70;;;1.40;;
13743;SDS011;6943;52.368;9.966;2022-09-09T02:39:23;3.53;;;1.50;;
13743;SDS011;6943;52.368;9.966;2022-09-09T02:41:48;1.57;;;1.30;;
13743;SDS011;6943;52.368;9.966;2022-09-09T02:44:15;2.17;;;1.60;;
13743;SDS011;6943;52.368;9.966;2022-09-09T02:52:18;2.37;;;1.40;;
13743;SDS011;6943;52.368;9.966;2022-09-09T02:54:50;2.70;;;1.43;;
13743;SDS011;6943;52.368;9.966;2022-09-09T02:57:25;3.00;;;1.40;;
13743;SDS011;6943;52.368;9.966;2022-09-09T02:59:53;4.17;;;1.60;;
13743;SDS011;6943;52.368;9.966;2022-09-09T03:02:21;3.70;;;1.57;;
13743;SDS011;6943;52.368;9.966;2022-09-09T03:04:47;2.47;;;1.50;;
13743;SDS011;6943;52.368;9.966;2022-09-09T03:07:16;2.13;;;1.40;;
13743;SDS011;6943;52.368;9.966;2022-09-09T03:09:43;2.97;;;1.57;;
13743;SDS011;6943;52.368;9.966;2022-09-09T03:12:09;5.43;;;1.60;;
13743;SDS011;6943;52.368;9.966;2022-09-09T03:14:36;2.17;;;1.50;;
13743;SDS011;6943;52.368;9.966;2022-09-09T03:17:03;2.67;;;1.20;;
13743;SDS011;6943;52.368;9.966;2022-09-09T03:19:29;2.50;;;1.83;;
13743;SDS011;6943;52.368;9.966;2022-09-09T03:21:56;4.07;;;1.77;;
13743;SDS011;6943;52.368;9.966;2022-09-09T03:24:22;2.60;;;1.50;;
13743;SDS011;6943;52.368;9.966;2022-09-09T03:26:47;2.70;;;1.63;;
13743;SDS011;6943;52.368;9.966;2022-09-09T03:29:13;3.70;;;1.70;;
13743;SDS011;6943;52.368;9.966;2022-09-09T03:31:39;3.67;;;1.50;;
13743;SDS011;6943;52.368;9.966;2022-09-09T03:34:05;5.03;;;1.90;;
13743;SDS011;6943;52.368;9.966;2022-09-09T03:36:31;3.07;;;1.47;;
13743;SDS011;6943;52.368;9.966;2022-09-09T03:38:57;2.10;;;1.53;;
13743;SDS011;6943;52.368;9.966;2022-09-09T03:41:24;4.83;;;1.90;;
13743;SDS011;6943;52.368;9.966;2022-09-09T03:43:53;2.37;;;1.50;;
13743;SDS011;6943;52.368;9.966;2022-09-09T03:46:19;2.87;;;1.53;;
13743;SDS011;6943;52.368;9.966;2022-09-09T03:48:46;3.03;;;1.60;;
13743;SDS011;6943;52.368;9.966;2022-09-09T03:51:11;3.10;;;1.50;;
13743;SDS011;6943;52.368;9.966;2022-09-09T03:53:37;3.10;;;1.67;;
13743;SDS011;6943;52.368;9.966;2022-09-09T03:56:03;3.17;;;1.30;;
13743;SDS011;6943;52.368;9.966;2022-09-09T03:58:31;4.97;;;1.40;;
13743;SDS011;6943;52.368;9.966;2022-09-09T04:01:05;4.00;;;1.47;;
13743;SDS011;6943;52.368;9.966;2022-09-09T04:03:33;3.43;;;1.47;;
13743;SDS011;6943;52.368;9.966;2022-09-09T04:06:00;3.60;;;1.90;;
13743;SDS011;6943;52.368;9.966;2022-09-09T04:08:28;3.03;;;1.87;;
13743;SDS011;6943;52.368;9.966;2022-09-09T04:10:56;5.80;;;1.97;;
13743;SDS011;6943;52.368;9.966;2022-09-09T04:13:23;1.63;;;1.40;;
13743;SDS011;6943;52.368;9.966;2022-09-09T04:15:52;3.97;;;1.73;;
13743;SDS011;6943;52.368;9.966;2022-09-09T04:18:22;2.30;;;1.60;;
13743;SDS011;6943;52.368;9.966;2022-09-09T04:20:49;3.27;;;1.90;;
13743;SDS011;6943;52.368;9.966;2022-09-09T04:23:16;2.83;;;1.60;;
13743;SDS011;6943;52.368;9.966;2022-09-09T04:25:47;3.23;;;1.80;;
13743;SDS011;6943;52.368;9.966;2022-09-09T04:28:15;5.13;;;2.03;;
13743;SDS011;6943;52.368;9.966;2022-09-09T04:30:41;2.60;;;1.70;;
13743;SDS011;6943;52.368;9.966;2022-09-09T04:33:07;3.00;;;1.60;;
13743;SDS011;6943;52.368;9.966;2022-09-09T04:35:34;3.43;;;1.50;;
13743;SDS011;6943;52.368;9.966;2022-09-09T04:38:00;5.53;;;1.77;;
13743;SDS011;6943;52.368;9.966;2022-09-09T04:40:27;3.00;;;1.80;;
13743;SDS011;6943;52.368;9.966;2022-09-09T04:42:54;6.77;;;2.03;;
13743;SDS011;6943;52.368;9.966;2022-09-09T04:45:20;6.40;;;1.70;;
13743;SDS011;6943;52.368;9.966;2022-09-09T04:47:45;7.17;;;2.00;;
13743;SDS011;6943;52.368;9.966;2022-09-09T04:50:11;4.70;;;1.83;;
13743;SDS011;6943;52.368;9.966;2022-09-09T04:52:37;5.23;;;1.93;;
13743;SDS011;6943;52.368;9.966;2022-09-09T04:55:02;6.17;;;2.20;;
13743;SDS011;6943;52.368;9.966;2022-09-09T04:57:28;4.73;;;1.93;;
13743;SDS011;6943;52.368;9.966;2022-09-09T04:59:56;4.73;;;1.67;;
13743;SDS011;6943;52.368;9.966;2022-09-09T05:02:21;4.97;;;1.97;;
13743;SDS011;6943;52.368;9.966;2022-09-09T05:04:46;6.37;;;1.80;;
13743;SDS011;6943;52.368;9.966;2022-09-09T05:07:14;4.13;;;2.30;;
13743;SDS011;6943;52.368;9.966;2022-09-09T05:09:40;4.93;;;1.80;;
13743;SDS011;6943;52.368;9.966;2022-09-09T05:12:05;5.27;;;2.07;;
13743;SDS011;6943;52.368;9.966;2022-09-09T05:14:31;4.17;;;2.00;;
13743;SDS011;6943;52.368;9.966;2022-09-09T05:16:56;4.53;;;1.73;;
13743;SDS011;6943;52.368;9.966;2022-09-09T05:19:22;4.47;;;2.00;;
13743;SDS011;6943;52.368;9.966;2022-09-09T05:21:48;3.57;;;1.97;;
13743;SDS011;6943;52.368;9.966;2022-09-09T05:24:14;6.30;;;1.73;;
13743;SDS011;6943;52.368;9.966;2022-09-09T05:26:40;4.80;;;1.67;;
13743;SDS011;6943;52.368;9.966;2022-09-09T05:29:06;2.57;;;1.87;;
13743;SDS011;6943;52.368;9.966;2022-09-09T05:31:33;3.33;;;2.30;;
13743;SDS011;6943;52.368;9.966;2022-09-09T05:33:58;5.87;;;2.00;;
13743;SDS011;6943;52.368;9.966;2022-09-09T05:36:24;11.37;;;2.40;;
13743;SDS011;6943;52.368;9.966;2022-09-09T05:38:49;8.00;;;2.13;;
13743;SDS011;6943;52.368;9.966;2022-09-09T05:41:16;4.43;;;1.80;;
13743;SDS011;6943;52.368;9.966;2022-09-09T05:43:42;3.30;;;1.40;;
13743;SDS011;6943;52.368;9.966;2022-09-09T05:46:16;5.63;;;2.03;;
13743;SDS011;6943;52.368;9.966;2022-09-09T05:48:43;5.57;;;2.10;;
13743;SDS011;6943;52.368;9.966;2022-09-09T05:51:14;2.33;;;1.50;;
13743;SDS011;6943;52.368;9.966;2022-09-09T05:53:42;2.93;;;1.93;;
13743;SDS011;6943;52.368;9.966;2022-09-09T05:56:09;4.00;;;1.87;;
13743;SDS011;6943;52.368;9.966;2022-09-09T05:58:40;6.20;;;2.77;;
13743;SDS011;6943;52.368;9.966;2022-09-09T06:01:09;6.17;;;2.37;;
13743;SDS011;6943;52.368;9.966;2022-09-09T06:03:38;8.93;;;2.30;;
13743;SDS011;6943;52.368;9.966;2022-09-09T06:06:09;7.70;;;2.80;;
13743;SDS011;6943;52.368;9.966;2022-09-09T06:08:37;10.00;;;2.53;;
13743;SDS011;6943;52.368;9.966;2022-09-09T06:11:04;4.97;;;2.07;;
13743;SDS011;6943;52.368;9.966;2022-09-09T06:13:32;5.60;;;1.73;;
13743;SDS011;6943;52.368;9.966;2022-09-09T06:15:58;3.53;;;1.67;;
13743;SDS011;6943;52.368;9.966;2022-09-09T06:18:24;8.77;;;2.10;;
13743;SDS011;6943;52.368;9.966;2022-09-09T06:20:57;6.73;;;2.10;;
13743;SDS011;6943;52.368;9.966;2022-09-09T06:23:29;8.40;;;2.20;;
13743;SDS011;6943;52.368;9.966;2022-09-09T06:26:05;3.53;;;1.90;;
13743;SDS011;6943;52.368;9.966;2022-09-09T06:28:33;5.20;;;1.97;;
13743;SDS011;6943;52.368;9.966;2022-09-09T06:30:59;4.80;;;1.90;;
13743;SDS011;6943;52.368;9.966;2022-09-09T06:33:26;6.23;;;2.70;;
13743;SDS011;6943;52.368;9.966;2022-09-09T06:35:53;3.47;;;1.83;;
13743;SDS011;6943;52.368;9.966;2022-09-09T06:38:19;3.57;;;1.40;;
13743;SDS011;6943;52.368;9.966;2022-09-09T06:40:56;3.17;;;1.77;;
13743;SDS011;6943;52.368;9.966;2022-09-09T06:43:23;3.27;;;1.50;;
13743;SDS011;6943;52.368;9.966;2022-09-09T06:48:23;3.30;;;1.43;;
13743;SDS011;6943;52.368;9.966;2022-09-09T06:50:50;2.73;;;1.30;;
13743;SDS011;6943;52.368;9.966;2022-09-09T06:53:24;2.07;;;1.30;;
13743;SDS011;6943;52.368;9.966;2022-09-09T06:55:51;4.17;;;1.70;;
13743;SDS011;6943;52.368;9.966;2022-09-09T06:58:16;6.00;;;1.57;;
13743;SDS011;6943;52.368;9.966;2022-09-09T07:00:42;1.90;;;1.30;;
13743;SDS011;6943;52.368;9.966;2022-09-09T07:03:07;3.67;;;1.40;;
13743;SDS011;6943;52.368;9.966;2022-09-09T07:05:34;4.80;;;1.67;;
13743;SDS011;6943;52.368;9.966;2022-09-09T07:07:59;2.08;;;1.58;;
13743;SDS011;6943;52.368;9.966;2022-09-09T07:10:25;3.30;;;1.63;;
13743;SDS011;6943;52.368;9.966;2022-09-09T07:12:51;5.38;;;1.77;;
13743;SDS011;6943;52.368;9.966;2022-09-09T07:15:18;3.58;;;1.80;;
13743;SDS011;6943;52.368;9.966;2022-09-09T07:17:43;5.38;;;1.67;;
13743;SDS011;6943;52.368;9.966;2022-09-09T07:20:09;3.17;;;1.45;;
13743;SDS011;6943;52.368;9.966;2022-09-09T07:22:35;5.78;;;1.60;;
13743;SDS011;6943;52.368;9.966;2022-09-09T07:25:00;5.43;;;1.42;;
13743;SDS011;6943;52.368;9.966;2022-09-09T07:27:27;3.65;;;1.52;;
13743;SDS011;6943;52.368;9.966;2022-09-09T07:29:52;3.30;;;1.55;;
13743;SDS011;6943;52.368;9.966;2022-09-09T07:32:19;3.30;;;1.48;;
13743;SDS011;6943;52.368;9.966;2022-09-09T07:34:45;4.05;;;1.30;;
13743;SDS011;6943;52.368;9.966;2022-09-09T07:37:11;2.40;;;1.40;;
13743;SDS011;6943;52.368;9.966;2022-09-09T07:39:38;3.28;;;1.08;;
13743;SDS011;6943;52.368;9.966;2022-09-09T07:42:04;3.20;;;1.48;;
13743;SDS011;6943;52.368;9.966;2022-09-09T07:44:30;3.47;;;1.75;;
13743;SDS011;6943;52.368;9.966;2022-09-09T07:46:57;2.65;;;1.00;;
13743;SDS011;6943;52.368;9.966;2022-09-09T07:49:22;3.28;;;1.55;;
13743;SDS011;6943;52.368;9.966;2022-09-09T07:51:49;3.30;;;1.25;;
13743;SDS011;6943;52.368;9.966;2022-09-09T07:54:15;3.63;;;1.40;;
13743;SDS011;6943;52.368;9.966;2022-09-09T07:56:45;2.25;;;1.25;;
13743;SDS011;6943;52.368;9.966;2022-09-09T07:59:11;4.20;;;1.40;;
13743;SDS011;6943;52.368;9.966;2022-09-09T08:01:41;3.80;;;1.63;;
13743;SDS011;6943;52.368;9.966;2022-09-09T08:04:13;2.55;;;1.38;;
13743;SDS011;6943;52.368;9.966;2022-09-09T08:06:41;3.10;;;1.40;;
13743;SDS011;6943;52.368;9.966;2022-09-09T08:09:08;4.30;;;1.40;;
13743;SDS011;6943;52.368;9.966;2022-09-09T08:11:35;3.13;;;1.23;;
13743;SDS011;6943;52.368;9.966;2022-09-09T08:14:02;3.47;;;1.40;;
13743;SDS011;6943;52.368;9.966;2022-09-09T08:16:29;4.32;;;1.42;;
13743;SDS011;6943;52.368;9.966;2022-09-09T08:18:56;2.00;;;1.10;;
13743;SDS011;6943;52.368;9.966;2022-09-09T08:21:23;3.25;;;1.33;;
13743;SDS011;6943;52.368;9.966;2022-09-09T08:23:52;3.17;;;1.00;;
13743;SDS011;6943;52.368;9.966;2022-09-09T08:26:19;4.47;;;1.38;;
13743;SDS011;6943;52.368;9.966;2022-09-09T08:28:47;3.22;;;1.40;;
13743;SDS011;6943;52.368;9.966;2022-09-09T08:31:15;3.78;;;1.25;;
13743;SDS011;6943;52.368;9.966;2022-09-09T08:33:42;2.80;;;1.20;;
13743;SDS011;6943;52.368;9.966;2022-09-09T08:36:10;4.90;;;1.80;;
13743;SDS011;6943;52.368;9.966;2022-09-09T08:38:38;4.32;;;1.35;;
13743;SDS011;6943;52.368;9.966;2022-09-09T08:41:27;3.63;;;1.17;;
13743;SDS011;6943;52.368;9.966;2022-09-09T08:44:02;3.13;;;1.35;;
13743;SDS011;6943;52.368;9.966;2022-09-09T08:46:38;3.97;;;1.25;;
13743;SDS011;6943;52.368;9.966;2022-09-09T08:52:12;2.35;;;1.10;;
13743;SDS011;6943;52.368;9.966;2022-09-09T08:54:46;4.15;;;1.63;;
13743;SDS011;6943;52.368;9.966;2022-09-09T08:57:18;4.95;;;1.42;;
13743;SDS011;6943;52.368;9.966;2022-09-09T08:59:53;1.63;;;1.00;;
13743;SDS011;6943;52.368;9.966;2022-09-09T09:02:31;3.53;;;1.20;;
13743;SDS011;6943;52.368;9.966;2022-09-09T09:05:07;1.77;;;1.40;;
13743;SDS011;6943;52.368;9.966;2022-09-09T09:10:33;4.03;;;1.33;;
13743;SDS011;6943;52.368;9.966;2022-09-09T09:16:06;2.70;;;1.30;;
13743;SDS011;6943;52.368;9.966;2022-09-09T09:18:44;3.30;;;1.40;;
13743;SDS011;6943;52.368;9.966;2022-09-09T09:21:12;3.10;;;1.52;;
13743;SDS011;6943;52.368;9.966;2022-09-09T09:26:21;3.38;;;1.23;;
13743;SDS011;6943;52.368;9.966;2022-09-09T09:28:51;5.20;;;1.85;;
13743;SDS011;6943;52.368;9.966;2022-09-09T09:31:21;2.30;;;1.35;;
13743;SDS011;6943;52.368;9.966;2022-09-09T09:36:18;7.43;;;1.60;;
13743;SDS011;6943;52.368;9.966;2022-09-09T09:38:57;2.55;;;1.17;;
13743;SDS011;6943;52.368;9.966;2022-09-09T09:41:31;3.70;;;1.35;;
13743;SDS011;6943;52.368;9.966;2022-09-09T09:44:02;3.50;;;1.33;;
13743;SDS011;6943;52.368;9.966;2022-09-09T09:46:29;2.80;;;1.38;;
13743;SDS011;6943;52.368;9.966;2022-09-09T09:49:02;2.92;;;1.15;;
13743;SDS011;6943;52.368;9.966;2022-09-09T09:51:30;5.13;;;1.60;;
13743;SDS011;6943;52.368;9.966;2022-09-09T09:56:38;3.65;;;1.40;;
13743;SDS011;6943;52.368;9.966;2022-09-09T09:59:05;3.08;;;1.20;;
13743;SDS011;6943;52.368;9.966;2022-09-09T10:01:31;3.20;;;1.15;;
13743;SDS011;6943;52.368;9.966;2022-09-09T10:03:59;3.88;;;1.20;;
13743;SDS011;6943;52.368;9.966;2022-09-09T10:06:30;3.30;;;1.20;;
13743;SDS011;6943;52.368;9.966;2022-09-09T10:08:58;4.80;;;1.77;;
13743;SDS011;6943;52.368;9.966;2022-09-09T10:11:26;4.90;;;1.60;;
13743;SDS011;6943;52.368;9.966;2022-09-09T10:14:17;3.35;;;1.45;;
13743;SDS011;6943;52.368;9.966;2022-09-09T10:16:48;4.53;;;1.30;;
13743;SDS011;6943;52.368;9.966;2022-09-09T10:19:37;3.75;;;1.48;;
13743;SDS011;6943;52.368;9.966;2022-09-09T10:22:07;3.05;;;1.33;;
13743;SDS011;6943;52.368;9.966;2022-09-09T10:27:57;3.67;;;1.58;;
13743;SDS011;6943;52.368;9.966;2022-09-09T10:33:21;2.78;;;1.45;;
13743;SDS011;6943;52.368;9.966;2022-09-09T10:36:21;6.85;;;1.50;;
13743;SDS011;6943;52.368;9.966;2022-09-09T10:39:04;2.72;;;1.35;;
13743;SDS011;6943;52.368;9.966;2022-09-09T10:44:15;3.80;;;1.33;;
13743;SDS011;6943;52.368;9.966;2022-09-09T10:46:52;4.13;;;1.50;;
13743;SDS011;6943;52.368;9.966;2022-09-09T10:52:32;5.15;;;1.55;;
13743;SDS011;6943;52.368;9.966;2022-09-09T10:55:10;2.47;;;1.23;;
13743;SDS011;6943;52.368;9.966;2022-09-09T10:57:46;6.10;;;1.70;;
13743;SDS011;6943;52.368;9.966;2022-09-09T11:00:21;3.80;;;1.40;;
13743;SDS011;6943;52.368;9.966;2022-09-09T11:03:01;3.97;;;1.60;;
13743;SDS011;6943;52.368;9.966;2022-09-09T11:05:33;2.97;;;1.35;;
13743;SDS011;6943;52.368;9.966;2022-09-09T11:08:18;3.95;;;1.50;;
13743;SDS011;6943;52.368;9.966;2022-09-09T11:13:39;4.35;;;1.90;;
13743;SDS011;6943;52.368;9.966;2022-09-09T11:16:15;4.10;;;1.13;;
13743;SDS011;6943;52.368;9.966;2022-09-09T11:19:02;4.28;;;1.40;;
13743;SDS011;6943;52.368;9.966;2022-09-09T11:21:41;3.17;;;1.45;;
13743;SDS011;6943;52.368;9.966;2022-09-09T11:24:22;2.40;;;1.33;;
13743;SDS011;6943;52.368;9.966;2022-09-09T11:26:51;5.15;;;1.70;;
13743;SDS011;6943;52.368;9.966;2022-09-09T11:29:44;3.53;;;1.30;;
13743;SDS011;6943;52.368;9.966;2022-09-09T11:32:48;5.13;;;1.83;;
13743;SDS011;6943;52.368;9.966;2022-09-09T11:35:30;4.63;;;1.50;;
13743;SDS011;6943;52.368;9.966;2022-09-09T11:40:55;2.97;;;1.15;;
13743;SDS011;6943;52.368;9.966;2022-09-09T11:43:32;3.10;;;1.30;;
13743;SDS011;6943;52.368;9.966;2022-09-09T11:46:04;4.03;;;1.10;;
13743;SDS011;6943;52.368;9.966;2022-09-09T11:48:33;4.28;;;1.30;;
13743;SDS011;6943;52.368;9.966;2022-09-09T11:51:03;2.65;;;1.50;;
13743;SDS011;6943;52.368;9.966;2022-09-09T11:53:34;3.07;;;1.30;;
13743;SDS011;6943;52.368;9.966;2022-09-09T11:56:02;2.53;;;1.30;;
13743;SDS011;6943;52.368;9.966;2022-09-09T11:58:36;3.33;;;1.00;;
13743;SDS011;6943;52.368;9.966;2022-09-09T12:01:13;2.80;;;0.90;;
13743;SDS011;6943;52.368;9.966;2022-09-09T12:03:54;2.13;;;0.73;;
13743;SDS011;6943;52.368;9.966;2022-09-09T12:06:31;2.60;;;0.90;;
13743;SDS011;6943;52.368;9.966;2022-09-09T12:09:19;1.40;;;0.90;;
13743;SDS011;6943;52.368;9.966;2022-09-09T12:12:05;2.70;;;1.03;;
13743;SDS011;6943;52.368;9.966;2022-09-09T12:14:36;3.63;;;0.80;;
13743;SDS011;6943;52.368;9.966;2022-09-09T12:19:39;3.77;;;1.17;;
13743;SDS011;6943;52.368;9.966;2022-09-09T12:22:16;2.43;;;0.70;;
13743;SDS011;6943;52.368;9.966;2022-09-09T12:24:49;2.27;;;0.90;;
13743;SDS011;6943;52.368;9.966;2022-09-09T12:27:40;2.90;;;0.90;;
13743;SDS011;6943;52.368;9.966;2022-09-09T12:30:22;1.33;;;0.77;;
13743;SDS011;6943;52.368;9.966;2022-09-09T12:33:01;2.17;;;0.77;;
13743;SDS011;6943;52.368;9.966;2022-09-09T12:35:33;3.93;;;1.10;;
13743;SDS011;6943;52.368;9.966;2022-09-09T12:38:00;2.90;;;0.70;;
13743;SDS011;6943;52.368;9.966;2022-09-09T12:40:29;2.53;;;0.73;;
13743;SDS011;6943;52.368;9.966;2022-09-09T12:42:57;3.20;;;1.00;;
13743;SDS011;6943;52.368;9.966;2022-09-09T12:45:25;1.63;;;1.03;;
13743;SDS011;6943;52.368;9.966;2022-09-09T12:50:26;1.63;;;0.80;;
13743;SDS011;6943;52.368;9.966;2022-09-09T12:52:58;2.60;;;0.80;;
13743;SDS011;6943;52.368;9.966;2022-09-09T12:55:31;2.13;;;1.40;;
13743;SDS011;6943;52.368;9.966;2022-09-09T12:57:59;4.20;;;1.57;;
13743;SDS011;6943;52.368;9.966;2022-09-09T13:00:29;1.43;;;0.90;;
13743;SDS011;6943;52.368;9.966;2022-09-09T13:02:57;3.07;;;1.07;;
13743;SDS011;6943;52.368;9.966;2022-09-09T13:05:36;2.10;;;0.90;;
13743;SDS011;6943;52.368;9.966;2022-09-09T13:08:04;3.80;;;0.90;;
13743;SDS011;6943;52.368;9.966;2022-09-09T13:10:35;1.40;;;0.80;;
13743;SDS011;6943;52.368;9.966;2022-09-09T13:13:14;4.40;;;1.37;;
13743;SDS011;6943;52.368;9.966;2022-09-09T13:15:48;3.20;;;1.23;;
13743;SDS011;6943;52.368;9.966;2022-09-09T13:18:16;3.43;;;1.10;;
13743;SDS011;6943;52.368;9.966;2022-09-09T13:20:47;2.63;;;1.00;;
13743;SDS011;6943;52.368;9.966;2022-09-09T13:23:13;3.00;;;1.10;;
13743;SDS011;6943;52.368;9.966;2022-09-09T13:25:40;1.77;;;1.23;;
13743;SDS011;6943;52.368;9.966;2022-09-09T13:28:18;3.90;;;1.13;;
13743;SDS011;6943;52.368;9.966;2022-09-09T13:30:54;5.00;;;1.07;;
13743;SDS011;6943;52.368;9.966;2022-09-09T13:33:29;3.67;;;1.07;;
13743;SDS011;6943;52.368;9.966;2022-09-09T13:36:10;2.50;;;0.90;;
13743;SDS011;6943;52.368;9.966;2022-09-09T13:38:38;2.10;;;1.10;;
13743;SDS011;6943;52.368;9.966;2022-09-09T13:41:35;2.23;;;0.90;;
13743;SDS011;6943;52.368;9.966;2022-09-09T13:44:06;2.93;;;1.00;;
13743;SDS011;6943;52.368;9.966;2022-09-09T13:47:04;2.87;;;1.10;;
13743;SDS011;6943;52.368;9.966;2022-09-09T13:49:41;1.53;;;0.80;;
13743;SDS011;6943;52.368;9.966;2022-09-09T13:52:11;2.93;;;0.83;;
13743;SDS011;6943;52.368;9.966;2022-09-09T13:54:39;2.93;;;1.00;;
13743;SDS011;6943;52.368;9.966;2022-09-09T13:57:05;1.57;;;0.90;;
13743;SDS011;6943;52.368;9.966;2022-09-09T13:59:44;4.47;;;1.20;;
13743;SDS011;6943;52.368;9.966;2022-09-09T14:02:11;1.77;;;0.97;;
13743;SDS011;6943;52.368;9.966;2022-09-09T14:04:37;2.53;;;0.80;;
13743;SDS011;6943;52.368;9.966;2022-09-09T14:07:02;1.87;;;0.80;;
13743;SDS011;6943;52.368;9.966;2022-09-09T14:09:28;4.30;;;1.10;;
13743;SDS011;6943;52.368;9.966;2022-09-09T14:11:54;1.53;;;0.90;;
13743;SDS011;6943;52.368;9.966;2022-09-09T14:14:22;2.30;;;1.00;;
13743;SDS011;6943;52.368;9.966;2022-09-09T14:16:48;1.73;;;0.70;;
13743;SDS011;6943;52.368;9.966;2022-09-09T14:19:13;2.73;;;1.00;;
13743;SDS011;6943;52.368;9.966;2022-09-09T14:21:39;3.70;;;1.23;;
13743;SDS011;6943;52.368;9.966;2022-09-09T14:24:04;3.80;;;1.30;;
13743;SDS011;6943;52.368;9.966;2022-09-09T14:26:31;3.67;;;1.13;;
13743;SDS011;6943;52.368;9.966;2022-09-09T14:28:57;5.03;;;1.30;;
13743;SDS011;6943;52.368;9.966;2022-09-09T14:31:23;5.30;;;1.30;;
13743;SDS011;6943;52.368;9.966;2022-09-09T14:33:49;4.57;;;1.37;;
13743;SDS011;6943;52.368;9.966;2022-09-09T14:36:15;1.87;;;0.87;;
13743;SDS011;6943;52.368;9.966;2022-09-09T14:38:41;3.80;;;1.00;;
13743;SDS011;6943;52.368;9.966;2022-09-09T14:41:09;3.03;;;1.00;;
13743;SDS011;6943;52.368;9.966;2022-09-09T14:43:39;2.30;;;0.97;;
13743;SDS011;6943;52.368;9.966;2022-09-09T14:46:06;3.70;;;1.17;;
13743;SDS011;6943;52.368;9.966;2022-09-09T14:48:50;2.07;;;0.93;;
13743;SDS011;6943;52.368;9.966;2022-09-09T14:51:17;2.90;;;1.17;;
13743;SDS011;6943;52.368;9.966;2022-09-09T14:53:44;4.03;;;1.10;;
13743;SDS011;6943;52.368;9.966;2022-09-09T14:56:12;3.40;;;1.00;;
13743;SDS011;6943;52.368;9.966;2022-09-09T14:58:43;3.60;;;1.10;;
13743;SDS011;6943;52.368;9.966;2022-09-09T15:01:12;3.30;;;1.60;;
13743;SDS011;6943;52.368;9.966;2022-09-09T15:03:40;2.77;;;1.40;;
13743;SDS011;6943;52.368;9.966;2022-09-09T15:06:07;2.73;;;1.30;;
13743;SDS011;6943;52.368;9.966;2022-09-09T15:08:39;2.40;;;0.97;;
13743;SDS011;6943;52.368;9.966;2022-09-09T15:11:06;6.80;;;1.20;;
13743;SDS011;6943;52.368;9.966;2022-09-09T15:13:33;2.23;;;1.00;;
13743;SDS011;6943;52.368;9.966;2022-09-09T15:16:04;3.83;;;1.70;;
13743;SDS011;6943;52.368;9.966;2022-09-09T15:18:34;3.80;;;1.17;;
13743;SDS011;6943;52.368;9.966;2022-09-09T15:21:01;4.77;;;1.30;;
13743;SDS011;6943;52.368;9.966;2022-09-09T15:23:31;2.07;;;1.30;;
13743;SDS011;6943;52.368;9.966;2022-09-09T15:25:57;3.80;;;0.90;;
13743;SDS011;6943;52.368;9.966;2022-09-09T15:28:23;2.97;;;1.17;;
13743;SDS011;6943;52.368;9.966;2022-09-09T15:30:49;4.70;;;1.33;;
13743;SDS011;6943;52.368;9.966;2022-09-09T15:33:16;2.70;;;1.07;;
13743;SDS011;6943;52.368;9.966;2022-09-09T15:35:42;3.70;;;1.07;;
13743;SDS011;6943;52.368;9.966;2022-09-09T15:38:08;2.67;;;1.23;;
13743;SDS011;6943;52.368;9.966;2022-09-09T15:40:34;3.80;;;1.23;;
13743;SDS011;6943;52.368;9.966;2022-09-09T15:42:59;3.43;;;1.37;;
13743;SDS011;6943;52.368;9.966;2022-09-09T15:45:25;3.67;;;1.50;;
13743;SDS011;6943;52.368;9.966;2022-09-09T15:47:51;3.10;;;1.13;;
13743;SDS011;6943;52.368;9.966;2022-09-09T15:50:17;3.57;;;1.27;;
13743;SDS011;6943;52.368;9.966;2022-09-09T15:52:43;3.67;;;1.20;;
13743;SDS011;6943;52.368;9.966;2022-09-09T15:55:09;2.30;;;1.00;;
13743;SDS011;6943;52.368;9.966;2022-09-09T15:57:34;7.17;;;1.37;;
13743;SDS011;6943;52.368;9.966;2022-09-09T16:00:01;3.73;;;1.30;;
13743;SDS011;6943;52.368;9.966;2022-09-09T16:02:28;4.97;;;1.30;;
13743;SDS011;6943;52.368;9.966;2022-09-09T16:04:55;4.40;;;1.30;;
13743;SDS011;6943;52.368;9.966;2022-09-09T16:07:22;4.23;;;1.40;;
13743;SDS011;6943;52.368;9.966;2022-09-09T16:09:47;3.90;;;1.13;;
13743;SDS011;6943;52.368;9.966;2022-09-09T16:12:15;2.40;;;1.27;;
13743;SDS011;6943;52.368;9.966;2022-09-09T16:14:41;5.83;;;1.30;;
13743;SDS011;6943;52.368;9.966;2022-09-09T16:17:06;1.90;;;1.00;;
13743;SDS011;6943;52.368;9.966;2022-09-09T16:19:32;3.03;;;1.20;;
13743;SDS011;6943;52.368;9.966;2022-09-09T16:21:59;2.77;;;1.00;;
13743;SDS011;6943;52.368;9.966;2022-09-09T16:24:25;2.70;;;1.07;;
13743;SDS011;6943;52.368;9.966;2022-09-09T16:26:51;3.40;;;1.00;;
13743;SDS011;6943;52.368;9.966;2022-09-09T16:29:19;2.70;;;1.10;;
13743;SDS011;6943;52.368;9.966;2022-09-09T16:31:47;3.27;;;1.20;;
13743;SDS011;6943;52.368;9.966;2022-09-09T16:34:14;1.77;;;0.80;;
13743;SDS011;6943;52.368;9.966;2022-09-09T16:36:41;2.77;;;1.10;;
13743;SDS011;6943;52.368;9.966;2022-09-09T16:39:08;3.60;;;1.23;;